sensor_id;sensor_type;location;lat;lon;timestamp;P1;durP1;ratioP1;P2;durP2;ratioP2
10725;SDS011;5414;59.782;16.378;2023-04-09T00:01:23;1.70;;;1.20;;
10725;SDS011;5414;59.782;16.378;2023-04-09T00:03:49;1.10;;;1.00;;
10725;SDS011;5414;59.782;16.378;2023-04-09T00:06:15;1.10;;;1.00;;
10725;SDS011;5414;59.782;16.378;2023-04-09T00:08:41;1.20;;;1.10;;
10725;SDS011;5414;59.782;16.378;2023-04-09T00:11:07;2.20;;;1.60;;
10725;SDS011;5414;59.782;16.378;2023-04-09T00:13:33;1.60;;;1.27;;
10725;SDS011;5414;59.782;16.378;2023-04-09T00:16:00;1.40;;;1.30;;
10725;SDS011;5414;59.782;16.378;2023-04-09T00:18:26;1.10;;;1.00;;
10725;SDS011;5414;59.782;16.378;2023-04-09T00:20:52;1.93;;;1.23;;
10725;SDS011;5414;59.782;16.378;2023-04-09T00:23:18;1.40;;;1.30;;
10725;SDS011;5414;59.782;16.378;2023-04-09T00:25:44;1.70;;;1.37;;
10725;SDS011;5414;59.782;16.378;2023-04-09T00:28:10;1.77;;;1.30;;
10725;SDS011;5414;59.782;16.378;2023-04-09T00:30:36;1.40;;;1.30;;
10725;SDS011;5414;59.782;16.378;2023-04-09T00:33:02;1.40;;;1.10;;
10725;SDS011;5414;59.782;16.378;2023-04-09T00:35:28;1.17;;;1.10;;
10725;SDS011;5414;59.782;16.378;2023-04-09T00:37:55;1.50;;;1.30;;
10725;SDS011;5414;59.782;16.378;2023-04-09T00:40:21;1.23;;;1.13;;
10725;SDS011;5414;59.782;16.378;2023-04-09T00:42:47;1.30;;;1.17;;
10725;SDS011;5414;59.782;16.378;2023-04-09T00:45:13;1.67;;;1.30;;
10725;SDS011;5414;59.782;16.378;2023-04-09T00:47:39;2.93;;;1.30;;
10725;SDS011;5414;59.782;16.378;2023-04-09T00:50:08;1.93;;;1.33;;
10725;SDS011;5414;59.782;16.378;2023-04-09T00:52:35;1.20;;;1.10;;
10725;SDS011;5414;59.782;16.378;2023-04-09T00:55:02;1.20;;;1.10;;
10725;SDS011;5414;59.782;16.378;2023-04-09T00:57:29;1.60;;;1.27;;
10725;SDS011;5414;59.782;16.378;2023-04-09T00:59:55;1.53;;;1.20;;
10725;SDS011;5414;59.782;16.378;2023-04-09T01:02:21;1.57;;;1.10;;
10725;SDS011;5414;59.782;16.378;2023-04-09T01:04:47;1.40;;;1.30;;
10725;SDS011;5414;59.782;16.378;2023-04-09T01:09:53;2.10;;;1.50;;
10725;SDS011;5414;59.782;16.378;2023-04-09T01:17:21;1.93;;;1.30;;
10725;SDS011;5414;59.782;16.378;2023-04-09T01:19:58;1.47;;;1.10;;
10725;SDS011;5414;59.782;16.378;2023-04-09T01:30:42;1.90;;;1.40;;
10725;SDS011;5414;59.782;16.378;2023-04-09T01:33:11;2.00;;;1.40;;
10725;SDS011;5414;59.782;16.378;2023-04-09T01:35:38;1.90;;;1.27;;
10725;SDS011;5414;59.782;16.378;2023-04-09T01:38:06;1.60;;;1.50;;
10725;SDS011;5414;59.782;16.378;2023-04-09T01:40:32;2.47;;;1.60;;
10725;SDS011;5414;59.782;16.378;2023-04-09T01:42:58;1.87;;;1.40;;
10725;SDS011;5414;59.782;16.378;2023-04-09T01:45:26;2.27;;;1.53;;
10725;SDS011;5414;59.782;16.378;2023-04-09T01:47:53;1.33;;;1.23;;
10725;SDS011;5414;59.782;16.378;2023-04-09T01:50:20;2.37;;;1.70;;
10725;SDS011;5414;59.782;16.378;2023-04-09T01:52:46;2.27;;;1.37;;
10725;SDS011;5414;59.782;16.378;2023-04-09T01:55:13;2.13;;;1.50;;
10725;SDS011;5414;59.782;16.378;2023-04-09T01:57:39;1.87;;;1.60;;
10725;SDS011;5414;59.782;16.378;2023-04-09T02:00:06;1.37;;;1.20;;
10725;SDS011;5414;59.782;16.378;2023-04-09T02:02:39;1.97;;;1.47;;
10725;SDS011;5414;59.782;16.378;2023-04-09T02:05:07;1.67;;;1.40;;
10725;SDS011;5414;59.782;16.378;2023-04-09T02:07:41;1.93;;;1.30;;
10725;SDS011;5414;59.782;16.378;2023-04-09T02:10:08;1.60;;;1.33;;
10725;SDS011;5414;59.782;16.378;2023-04-09T02:12:36;2.40;;;1.67;;
10725;SDS011;5414;59.782;16.378;2023-04-09T02:15:02;2.67;;;1.67;;
10725;SDS011;5414;59.782;16.378;2023-04-09T02:17:28;1.67;;;1.57;;
10725;SDS011;5414;59.782;16.378;2023-04-09T02:19:54;1.50;;;1.40;;
10725;SDS011;5414;59.782;16.378;2023-04-09T02:22:21;1.70;;;1.60;;
10725;SDS011;5414;59.782;16.378;2023-04-09T02:24:47;1.77;;;1.40;;
10725;SDS011;5414;59.782;16.378;2023-04-09T02:27:13;1.30;;;1.20;;
10725;SDS011;5414;59.782;16.378;2023-04-09T02:29:39;1.83;;;1.30;;
10725;SDS011;5414;59.782;16.378;2023-04-09T02:32:05;1.40;;;1.30;;
10725;SDS011;5414;59.782;16.378;2023-04-09T02:34:31;2.23;;;1.40;;
10725;SDS011;5414;59.782;16.378;2023-04-09T02:36:57;1.83;;;1.47;;
10725;SDS011;5414;59.782;16.378;2023-04-09T02:39:23;1.60;;;1.50;;
10725;SDS011;5414;59.782;16.378;2023-04-09T02:41:51;1.70;;;1.40;;
10725;SDS011;5414;59.782;16.378;2023-04-09T02:44:17;1.60;;;1.50;;
10725;SDS011;5414;59.782;16.378;2023-04-09T02:46:43;1.67;;;1.40;;
10725;SDS011;5414;59.782;16.378;2023-04-09T02:49:09;1.80;;;1.60;;
10725;SDS011;5414;59.782;16.378;2023-04-09T02:51:35;1.73;;;1.57;;
10725;SDS011;5414;59.782;16.378;2023-04-09T02:54:01;1.93;;;1.67;;
10725;SDS011;5414;59.782;16.378;2023-04-09T02:56:27;1.40;;;1.30;;
10725;SDS011;5414;59.782;16.378;2023-04-09T02:58:53;2.17;;;1.50;;
10725;SDS011;5414;59.782;16.378;2023-04-09T03:01:20;1.60;;;1.50;;
10725;SDS011;5414;59.782;16.378;2023-04-09T03:03:46;1.77;;;1.50;;
10725;SDS011;5414;59.782;16.378;2023-04-09T03:06:12;1.63;;;1.40;;
10725;SDS011;5414;59.782;16.378;2023-04-09T03:08:38;1.80;;;1.40;;
10725;SDS011;5414;59.782;16.378;2023-04-09T03:11:04;2.13;;;1.70;;
10725;SDS011;5414;59.782;16.378;2023-04-09T03:13:30;2.37;;;1.70;;
10725;SDS011;5414;59.782;16.378;2023-04-09T03:15:56;1.80;;;1.60;;
10725;SDS011;5414;59.782;16.378;2023-04-09T03:18:22;1.97;;;1.60;;
10725;SDS011;5414;59.782;16.378;2023-04-09T03:20:48;2.10;;;1.63;;
10725;SDS011;5414;59.782;16.378;2023-04-09T03:23:14;1.53;;;1.43;;
10725;SDS011;5414;59.782;16.378;2023-04-09T03:25:40;1.97;;;1.77;;
10725;SDS011;5414;59.782;16.378;2023-04-09T03:28:06;1.40;;;1.30;;
10725;SDS011;5414;59.782;16.378;2023-04-09T03:30:32;1.77;;;1.43;;
10725;SDS011;5414;59.782;16.378;2023-04-09T03:32:58;1.60;;;1.50;;
10725;SDS011;5414;59.782;16.378;2023-04-09T03:35:24;1.67;;;1.40;;
10725;SDS011;5414;59.782;16.378;2023-04-09T03:37:50;1.70;;;1.60;;
10725;SDS011;5414;59.782;16.378;2023-04-09T03:40:16;2.17;;;1.50;;
10725;SDS011;5414;59.782;16.378;2023-04-09T03:42:43;2.37;;;1.63;;
10725;SDS011;5414;59.782;16.378;2023-04-09T03:45:09;1.50;;;1.40;;
10725;SDS011;5414;59.782;16.378;2023-04-09T03:47:35;1.70;;;1.60;;
10725;SDS011;5414;59.782;16.378;2023-04-09T03:50:02;1.60;;;1.50;;
10725;SDS011;5414;59.782;16.378;2023-04-09T03:52:28;2.23;;;1.50;;
10725;SDS011;5414;59.782;16.378;2023-04-09T03:54:54;1.50;;;1.40;;
10725;SDS011;5414;59.782;16.378;2023-04-09T03:57:20;1.90;;;1.57;;
10725;SDS011;5414;59.782;16.378;2023-04-09T03:59:46;1.87;;;1.40;;
10725;SDS011;5414;59.782;16.378;2023-04-09T04:02:12;3.80;;;1.60;;
10725;SDS011;5414;59.782;16.378;2023-04-09T04:04:38;3.07;;;1.80;;
10725;SDS011;5414;59.782;16.378;2023-04-09T04:07:05;1.53;;;1.40;;
10725;SDS011;5414;59.782;16.378;2023-04-09T04:09:32;2.03;;;1.40;;
10725;SDS011;5414;59.782;16.378;2023-04-09T04:11:59;1.50;;;1.40;;
10725;SDS011;5414;59.782;16.378;2023-04-09T04:14:27;1.90;;;1.57;;
10725;SDS011;5414;59.782;16.378;2023-04-09T04:16:54;1.43;;;1.30;;
10725;SDS011;5414;59.782;16.378;2023-04-09T04:19:20;1.70;;;1.60;;
10725;SDS011;5414;59.782;16.378;2023-04-09T04:21:46;1.37;;;1.27;;
10725;SDS011;5414;59.782;16.378;2023-04-09T04:24:12;1.90;;;1.40;;
10725;SDS011;5414;59.782;16.378;2023-04-09T04:26:38;2.60;;;1.50;;
10725;SDS011;5414;59.782;16.378;2023-04-09T04:29:05;1.63;;;1.33;;
10725;SDS011;5414;59.782;16.378;2023-04-09T04:31:31;1.77;;;1.50;;
10725;SDS011;5414;59.782;16.378;2023-04-09T04:33:57;2.03;;;1.70;;
10725;SDS011;5414;59.782;16.378;2023-04-09T04:36:23;1.63;;;1.30;;
10725;SDS011;5414;59.782;16.378;2023-04-09T04:38:48;2.43;;;1.43;;
10725;SDS011;5414;59.782;16.378;2023-04-09T04:41:14;1.53;;;1.30;;
10725;SDS011;5414;59.782;16.378;2023-04-09T04:43:41;1.60;;;1.50;;
10725;SDS011;5414;59.782;16.378;2023-04-09T04:46:07;1.50;;;1.40;;
10725;SDS011;5414;59.782;16.378;2023-04-09T04:48:33;2.50;;;1.63;;
10725;SDS011;5414;59.782;16.378;2023-04-09T04:51:00;2.50;;;1.67;;
10725;SDS011;5414;59.782;16.378;2023-04-09T04:53:26;3.17;;;1.63;;
10725;SDS011;5414;59.782;16.378;2023-04-09T04:55:54;1.90;;;1.50;;
10725;SDS011;5414;59.782;16.378;2023-04-09T04:58:20;2.03;;;1.40;;
10725;SDS011;5414;59.782;16.378;2023-04-09T05:00:46;1.50;;;1.40;;
10725;SDS011;5414;59.782;16.378;2023-04-09T05:03:12;2.53;;;1.40;;
10725;SDS011;5414;59.782;16.378;2023-04-09T05:05:38;5.70;;;1.60;;
10725;SDS011;5414;59.782;16.378;2023-04-09T05:08:04;1.90;;;1.50;;
10725;SDS011;5414;59.782;16.378;2023-04-09T05:10:31;1.60;;;1.50;;
10725;SDS011;5414;59.782;16.378;2023-04-09T05:12:57;1.53;;;1.40;;
10725;SDS011;5414;59.782;16.378;2023-04-09T05:15:23;2.37;;;1.53;;
10725;SDS011;5414;59.782;16.378;2023-04-09T05:17:49;2.70;;;1.57;;
10725;SDS011;5414;59.782;16.378;2023-04-09T05:20:15;2.73;;;1.40;;
10725;SDS011;5414;59.782;16.378;2023-04-09T05:22:41;1.80;;;1.50;;
10725;SDS011;5414;59.782;16.378;2023-04-09T05:25:07;1.47;;;1.37;;
10725;SDS011;5414;59.782;16.378;2023-04-09T05:27:34;2.53;;;1.60;;
10725;SDS011;5414;59.782;16.378;2023-04-09T05:30:00;2.10;;;1.90;;
10725;SDS011;5414;59.782;16.378;2023-04-09T05:32:26;2.83;;;1.53;;
10725;SDS011;5414;59.782;16.378;2023-04-09T05:34:52;2.80;;;1.77;;
10725;SDS011;5414;59.782;16.378;2023-04-09T05:37:19;7.00;;;2.80;;
10725;SDS011;5414;59.782;16.378;2023-04-09T05:39:45;2.10;;;1.90;;
10725;SDS011;5414;59.782;16.378;2023-04-09T05:42:11;1.70;;;1.60;;
10725;SDS011;5414;59.782;16.378;2023-04-09T05:44:37;1.60;;;1.50;;
10725;SDS011;5414;59.782;16.378;2023-04-09T05:47:03;1.70;;;1.50;;
10725;SDS011;5414;59.782;16.378;2023-04-09T05:49:29;2.57;;;1.70;;
10725;SDS011;5414;59.782;16.378;2023-04-09T05:51:55;1.70;;;1.60;;
10725;SDS011;5414;59.782;16.378;2023-04-09T05:54:21;1.90;;;1.47;;
10725;SDS011;5414;59.782;16.378;2023-04-09T05:56:47;1.93;;;1.73;;
10725;SDS011;5414;59.782;16.378;2023-04-09T05:59:13;2.83;;;2.57;;
10725;SDS011;5414;59.782;16.378;2023-04-09T06:01:39;2.60;;;2.20;;
10725;SDS011;5414;59.782;16.378;2023-04-09T06:04:05;3.17;;;1.80;;
10725;SDS011;5414;59.782;16.378;2023-04-09T06:06:31;2.37;;;2.00;;
10725;SDS011;5414;59.782;16.378;2023-04-09T06:08:57;2.80;;;2.30;;
10725;SDS011;5414;59.782;16.378;2023-04-09T06:11:23;2.40;;;2.20;;
10725;SDS011;5414;59.782;16.378;2023-04-09T06:13:50;1.70;;;1.50;;
10725;SDS011;5414;59.782;16.378;2023-04-09T06:16:16;2.70;;;1.60;;
10725;SDS011;5414;59.782;16.378;2023-04-09T06:18:42;1.57;;;1.47;;
10725;SDS011;5414;59.782;16.378;2023-04-09T06:21:10;1.53;;;1.40;;
10725;SDS011;5414;59.782;16.378;2023-04-09T06:23:37;1.87;;;1.60;;
10725;SDS011;5414;59.782;16.378;2023-04-09T06:26:03;2.37;;;1.63;;
10725;SDS011;5414;59.782;16.378;2023-04-09T06:28:29;2.23;;;1.50;;
10725;SDS011;5414;59.782;16.378;2023-04-09T06:30:56;1.67;;;1.53;;
10725;SDS011;5414;59.782;16.378;2023-04-09T06:33:22;1.30;;;1.20;;
10725;SDS011;5414;59.782;16.378;2023-04-09T06:35:48;1.33;;;1.23;;
10725;SDS011;5414;59.782;16.378;2023-04-09T06:38:14;2.70;;;1.50;;
10725;SDS011;5414;59.782;16.378;2023-04-09T06:40:41;3.03;;;1.50;;
10725;SDS011;5414;59.782;16.378;2023-04-09T06:43:07;2.37;;;1.40;;
10725;SDS011;5414;59.782;16.378;2023-04-09T06:45:33;1.87;;;1.50;;
10725;SDS011;5414;59.782;16.378;2023-04-09T06:47:59;2.33;;;1.50;;
10725;SDS011;5414;59.782;16.378;2023-04-09T06:50:26;2.90;;;1.70;;
10725;SDS011;5414;59.782;16.378;2023-04-09T06:52:52;2.17;;;1.40;;
10725;SDS011;5414;59.782;16.378;2023-04-09T06:55:19;2.00;;;1.40;;
10725;SDS011;5414;59.782;16.378;2023-04-09T06:57:45;2.33;;;1.27;;
10725;SDS011;5414;59.782;16.378;2023-04-09T07:00:12;1.93;;;1.30;;
10725;SDS011;5414;59.782;16.378;2023-04-09T07:02:38;1.73;;;1.20;;
10725;SDS011;5414;59.782;16.378;2023-04-09T07:05:04;2.13;;;1.60;;
10725;SDS011;5414;59.782;16.378;2023-04-09T07:07:30;3.20;;;1.20;;
10725;SDS011;5414;59.782;16.378;2023-04-09T07:09:56;2.47;;;1.70;;
10725;SDS011;5414;59.782;16.378;2023-04-09T07:12:29;1.90;;;1.10;;
10725;SDS011;5414;59.782;16.378;2023-04-09T07:14:59;2.03;;;1.23;;
10725;SDS011;5414;59.782;16.378;2023-04-09T07:17:25;1.57;;;1.20;;
10725;SDS011;5414;59.782;16.378;2023-04-09T07:19:51;2.93;;;1.50;;
10725;SDS011;5414;59.782;16.378;2023-04-09T07:22:19;2.77;;;1.40;;
10725;SDS011;5414;59.782;16.378;2023-04-09T07:24:46;2.70;;;1.33;;
10725;SDS011;5414;59.782;16.378;2023-04-09T07:27:18;1.57;;;1.10;;
10725;SDS011;5414;59.782;16.378;2023-04-09T07:29:45;1.50;;;1.40;;
10725;SDS011;5414;59.782;16.378;2023-04-09T07:32:11;1.50;;;1.37;;
10725;SDS011;5414;59.782;16.378;2023-04-09T07:34:37;2.30;;;1.23;;
10725;SDS011;5414;59.782;16.378;2023-04-09T07:37:03;1.87;;;1.30;;
10725;SDS011;5414;59.782;16.378;2023-04-09T07:39:30;1.23;;;1.13;;
10725;SDS011;5414;59.782;16.378;2023-04-09T07:41:56;1.90;;;1.30;;
10725;SDS011;5414;59.782;16.378;2023-04-09T07:44:23;1.83;;;1.27;;
10725;SDS011;5414;59.782;16.378;2023-04-09T07:46:49;2.70;;;1.27;;
10725;SDS011;5414;59.782;16.378;2023-04-09T07:49:15;1.83;;;1.10;;
10725;SDS011;5414;59.782;16.378;2023-04-09T07:51:42;1.30;;;1.20;;
10725;SDS011;5414;59.782;16.378;2023-04-09T07:54:08;2.03;;;1.50;;
10725;SDS011;5414;59.782;16.378;2023-04-09T07:56:34;2.10;;;1.20;;
10725;SDS011;5414;59.782;16.378;2023-04-09T07:59:00;2.40;;;1.13;;
10725;SDS011;5414;59.782;16.378;2023-04-09T08:01:27;1.93;;;1.50;;
10725;SDS011;5414;59.782;16.378;2023-04-09T08:03:53;2.07;;;1.50;;
10725;SDS011;5414;59.782;16.378;2023-04-09T08:06:19;1.60;;;1.33;;
10725;SDS011;5414;59.782;16.378;2023-04-09T08:08:45;1.40;;;1.00;;
10725;SDS011;5414;59.782;16.378;2023-04-09T08:11:11;2.70;;;1.47;;
10725;SDS011;5414;59.782;16.378;2023-04-09T08:13:37;1.67;;;1.30;;
10725;SDS011;5414;59.782;16.378;2023-04-09T08:16:03;1.50;;;1.20;;
10725;SDS011;5414;59.782;16.378;2023-04-09T08:18:29;1.20;;;1.10;;
10725;SDS011;5414;59.782;16.378;2023-04-09T08:20:56;2.07;;;1.30;;
10725;SDS011;5414;59.782;16.378;2023-04-09T08:23:22;1.77;;;1.20;;
10725;SDS011;5414;59.782;16.378;2023-04-09T08:25:48;4.40;;;1.40;;
10725;SDS011;5414;59.782;16.378;2023-04-09T08:28:14;2.87;;;1.40;;
10725;SDS011;5414;59.782;16.378;2023-04-09T08:30:40;1.73;;;1.10;;
10725;SDS011;5414;59.782;16.378;2023-04-09T08:33:07;3.03;;;1.40;;
10725;SDS011;5414;59.782;16.378;2023-04-09T08:35:33;1.57;;;1.13;;
10725;SDS011;5414;59.782;16.378;2023-04-09T08:38:00;2.13;;;1.00;;
10725;SDS011;5414;59.782;16.378;2023-04-09T08:40:27;1.70;;;1.23;;
10725;SDS011;5414;59.782;16.378;2023-04-09T08:42:53;1.83;;;1.10;;
10725;SDS011;5414;59.782;16.378;2023-04-09T08:45:22;1.20;;;1.10;;
10725;SDS011;5414;59.782;16.378;2023-04-09T08:47:48;2.03;;;1.20;;
10725;SDS011;5414;59.782;16.378;2023-04-09T08:50:15;3.23;;;1.47;;
10725;SDS011;5414;59.782;16.378;2023-04-09T08:52:41;1.70;;;1.10;;
10725;SDS011;5414;59.782;16.378;2023-04-09T08:55:07;1.90;;;1.30;;
10725;SDS011;5414;59.782;16.378;2023-04-09T08:57:39;1.97;;;1.30;;
10725;SDS011;5414;59.782;16.378;2023-04-09T09:00:06;1.63;;;1.10;;
10725;SDS011;5414;59.782;16.378;2023-04-09T09:02:33;1.30;;;1.10;;
10725;SDS011;5414;59.782;16.378;2023-04-09T09:05:00;2.03;;;1.10;;
10725;SDS011;5414;59.782;16.378;2023-04-09T09:07:27;1.53;;;1.00;;
10725;SDS011;5414;59.782;16.378;2023-04-09T09:09:54;1.83;;;1.00;;
10725;SDS011;5414;59.782;16.378;2023-04-09T09:12:36;2.93;;;1.20;;
10725;SDS011;5414;59.782;16.378;2023-04-09T09:17:54;1.70;;;0.90;;
10725;SDS011;5414;59.782;16.378;2023-04-09T09:20:22;1.50;;;0.90;;
10725;SDS011;5414;59.782;16.378;2023-04-09T09:22:50;1.20;;;1.10;;
10725;SDS011;5414;59.782;16.378;2023-04-09T09:25:16;1.80;;;1.03;;
10725;SDS011;5414;59.782;16.378;2023-04-09T09:27:42;1.87;;;1.00;;
10725;SDS011;5414;59.782;16.378;2023-04-09T09:30:09;1.53;;;1.00;;
10725;SDS011;5414;59.782;16.378;2023-04-09T09:32:45;2.07;;;1.10;;
10725;SDS011;5414;59.782;16.378;2023-04-09T09:35:11;1.90;;;1.13;;
10725;SDS011;5414;59.782;16.378;2023-04-09T09:37:37;2.20;;;1.13;;
10725;SDS011;5414;59.782;16.378;2023-04-09T09:40:03;2.53;;;1.10;;
10725;SDS011;5414;59.782;16.378;2023-04-09T09:42:31;1.43;;;0.90;;
10725;SDS011;5414;59.782;16.378;2023-04-09T09:44:57;1.07;;;0.90;;
10725;SDS011;5414;59.782;16.378;2023-04-09T09:47:23;2.47;;;0.97;;
10725;SDS011;5414;59.782;16.378;2023-04-09T09:49:51;2.03;;;0.90;;
10725;SDS011;5414;59.782;16.378;2023-04-09T09:52:27;1.33;;;1.10;;
10725;SDS011;5414;59.782;16.378;2023-04-09T09:54:54;1.83;;;0.90;;
10725;SDS011;5414;59.782;16.378;2023-04-09T09:57:21;1.20;;;0.80;;
10725;SDS011;5414;59.782;16.378;2023-04-09T09:59:51;1.10;;;0.80;;
10725;SDS011;5414;59.782;16.378;2023-04-09T10:02:19;1.13;;;0.70;;
10725;SDS011;5414;59.782;16.378;2023-04-09T10:04:45;2.20;;;0.70;;
10725;SDS011;5414;59.782;16.378;2023-04-09T10:07:13;1.70;;;0.80;;
10725;SDS011;5414;59.782;16.378;2023-04-09T10:09:40;1.20;;;1.03;;
10725;SDS011;5414;59.782;16.378;2023-04-09T10:12:07;1.37;;;0.87;;
10725;SDS011;5414;59.782;16.378;2023-04-09T10:14:35;1.17;;;0.90;;
10725;SDS011;5414;59.782;16.378;2023-04-09T10:17:02;1.63;;;1.10;;
10725;SDS011;5414;59.782;16.378;2023-04-09T10:19:34;1.37;;;0.87;;
10725;SDS011;5414;59.782;16.378;2023-04-09T10:22:04;1.57;;;1.03;;
10725;SDS011;5414;59.782;16.378;2023-04-09T10:24:33;1.10;;;0.77;;
10725;SDS011;5414;59.782;16.378;2023-04-09T10:27:09;2.13;;;0.70;;
10725;SDS011;5414;59.782;16.378;2023-04-09T10:29:41;2.60;;;0.90;;
10725;SDS011;5414;59.782;16.378;2023-04-09T10:32:08;2.03;;;0.80;;
10725;SDS011;5414;59.782;16.378;2023-04-09T10:34:35;1.57;;;0.80;;
10725;SDS011;5414;59.782;16.378;2023-04-09T10:37:02;1.57;;;0.97;;
10725;SDS011;5414;59.782;16.378;2023-04-09T10:39:32;0.77;;;0.70;;
10725;SDS011;5414;59.782;16.378;2023-04-09T10:41:59;1.87;;;1.00;;
10725;SDS011;5414;59.782;16.378;2023-04-09T10:44:28;1.87;;;0.80;;
10725;SDS011;5414;59.782;16.378;2023-04-09T10:46:59;1.07;;;0.80;;
10725;SDS011;5414;59.782;16.378;2023-04-09T10:49:25;0.83;;;0.73;;
10725;SDS011;5414;59.782;16.378;2023-04-09T10:59:35;2.17;;;0.80;;
10725;SDS011;5414;59.782;16.378;2023-04-09T11:02:01;1.83;;;0.87;;
10725;SDS011;5414;59.782;16.378;2023-04-09T11:07:12;1.37;;;0.70;;
10725;SDS011;5414;59.782;16.378;2023-04-09T11:09:40;1.70;;;0.70;;
10725;SDS011;5414;59.782;16.378;2023-04-09T11:12:06;1.23;;;0.90;;
10725;SDS011;5414;59.782;16.378;2023-04-09T11:14:32;1.40;;;1.00;;
10725;SDS011;5414;59.782;16.378;2023-04-09T11:16:58;1.27;;;0.80;;
10725;SDS011;5414;59.782;16.378;2023-04-09T11:19:24;0.93;;;0.87;;
10725;SDS011;5414;59.782;16.378;2023-04-09T11:21:51;1.40;;;0.80;;
10725;SDS011;5414;59.782;16.378;2023-04-09T11:24:17;2.63;;;0.80;;
10725;SDS011;5414;59.782;16.378;2023-04-09T11:26:43;2.17;;;1.10;;
10725;SDS011;5414;59.782;16.378;2023-04-09T11:29:11;0.80;;;0.70;;
10725;SDS011;5414;59.782;16.378;2023-04-09T11:31:37;1.73;;;0.90;;
10725;SDS011;5414;59.782;16.378;2023-04-09T11:34:03;1.73;;;0.80;;
10725;SDS011;5414;59.782;16.378;2023-04-09T11:36:29;1.63;;;0.90;;
10725;SDS011;5414;59.782;16.378;2023-04-09T11:38:56;3.07;;;1.10;;
10725;SDS011;5414;59.782;16.378;2023-04-09T11:41:36;1.47;;;1.00;;
10725;SDS011;5414;59.782;16.378;2023-04-09T11:44:03;1.83;;;0.80;;
10725;SDS011;5414;59.782;16.378;2023-04-09T11:46:31;0.97;;;0.80;;
10725;SDS011;5414;59.782;16.378;2023-04-09T11:48:57;1.83;;;0.80;;
10725;SDS011;5414;59.782;16.378;2023-04-09T11:51:23;0.80;;;0.70;;
10725;SDS011;5414;59.782;16.378;2023-04-09T11:53:51;1.87;;;0.90;;
10725;SDS011;5414;59.782;16.378;2023-04-09T11:56:17;1.27;;;0.90;;
10725;SDS011;5414;59.782;16.378;2023-04-09T11:58:46;1.30;;;0.80;;
10725;SDS011;5414;59.782;16.378;2023-04-09T12:01:13;1.60;;;1.00;;
10725;SDS011;5414;59.782;16.378;2023-04-09T12:03:39;0.80;;;0.80;;
10725;SDS011;5414;59.782;16.378;2023-04-09T12:06:06;1.47;;;1.10;;
10725;SDS011;5414;59.782;16.378;2023-04-09T12:08:33;1.63;;;0.90;;
10725;SDS011;5414;59.782;16.378;2023-04-09T12:11:13;1.37;;;0.97;;
10725;SDS011;5414;59.782;16.378;2023-04-09T12:13:40;1.23;;;1.00;;
10725;SDS011;5414;59.782;16.378;2023-04-09T12:16:11;1.10;;;0.80;;
10725;SDS011;5414;59.782;16.378;2023-04-09T12:18:37;1.43;;;0.80;;
10725;SDS011;5414;59.782;16.378;2023-04-09T12:21:04;1.37;;;0.90;;
10725;SDS011;5414;59.782;16.378;2023-04-09T12:23:30;1.70;;;0.90;;
10725;SDS011;5414;59.782;16.378;2023-04-09T12:25:57;1.27;;;0.90;;
10725;SDS011;5414;59.782;16.378;2023-04-09T12:28:25;1.00;;;0.80;;
10725;SDS011;5414;59.782;16.378;2023-04-09T12:30:53;4.57;;;0.80;;
10725;SDS011;5414;59.782;16.378;2023-04-09T12:33:19;1.30;;;0.90;;
10725;SDS011;5414;59.782;16.378;2023-04-09T12:35:45;2.50;;;1.00;;
10725;SDS011;5414;59.782;16.378;2023-04-09T12:38:12;2.70;;;0.90;;
10725;SDS011;5414;59.782;16.378;2023-04-09T12:40:38;0.80;;;0.80;;
10725;SDS011;5414;59.782;16.378;2023-04-09T12:43:04;1.77;;;0.90;;
10725;SDS011;5414;59.782;16.378;2023-04-09T12:45:30;1.60;;;0.93;;
10725;SDS011;5414;59.782;16.378;2023-04-09T12:47:56;1.50;;;0.80;;
10725;SDS011;5414;59.782;16.378;2023-04-09T12:50:23;1.13;;;0.90;;
10725;SDS011;5414;59.782;16.378;2023-04-09T12:52:49;1.40;;;0.67;;
10725;SDS011;5414;59.782;16.378;2023-04-09T12:55:15;1.97;;;0.90;;
10725;SDS011;5414;59.782;16.378;2023-04-09T12:57:43;0.93;;;0.90;;
10725;SDS011;5414;59.782;16.378;2023-04-09T13:00:13;1.27;;;0.90;;
10725;SDS011;5414;59.782;16.378;2023-04-09T13:02:39;1.37;;;0.83;;
10725;SDS011;5414;59.782;16.378;2023-04-09T13:05:07;1.30;;;1.00;;
10725;SDS011;5414;59.782;16.378;2023-04-09T13:07:33;0.77;;;0.73;;
10725;SDS011;5414;59.782;16.378;2023-04-09T13:09:59;1.13;;;1.03;;
10725;SDS011;5414;59.782;16.378;2023-04-09T13:12:25;1.23;;;0.80;;
10725;SDS011;5414;59.782;16.378;2023-04-09T13:14:52;0.90;;;0.90;;
10725;SDS011;5414;59.782;16.378;2023-04-09T13:17:19;1.47;;;1.00;;
10725;SDS011;5414;59.782;16.378;2023-04-09T13:19:45;1.20;;;0.80;;
10725;SDS011;5414;59.782;16.378;2023-04-09T13:22:11;0.97;;;0.73;;
10725;SDS011;5414;59.782;16.378;2023-04-09T13:24:37;1.63;;;1.00;;
10725;SDS011;5414;59.782;16.378;2023-04-09T13:27:04;1.23;;;1.00;;
10725;SDS011;5414;59.782;16.378;2023-04-09T13:29:32;1.33;;;1.00;;
10725;SDS011;5414;59.782;16.378;2023-04-09T13:31:58;1.50;;;0.90;;
10725;SDS011;5414;59.782;16.378;2023-04-09T13:34:26;2.00;;;1.03;;
10725;SDS011;5414;59.782;16.378;2023-04-09T13:36:52;1.10;;;0.80;;
10725;SDS011;5414;59.782;16.378;2023-04-09T13:39:18;0.77;;;0.73;;
10725;SDS011;5414;59.782;16.378;2023-04-09T13:41:45;1.37;;;0.70;;
10725;SDS011;5414;59.782;16.378;2023-04-09T13:44:11;0.97;;;0.80;;
10725;SDS011;5414;59.782;16.378;2023-04-09T13:46:37;1.20;;;0.90;;
10725;SDS011;5414;59.782;16.378;2023-04-09T13:49:03;1.03;;;0.80;;
10725;SDS011;5414;59.782;16.378;2023-04-09T13:51:29;1.53;;;1.07;;
10725;SDS011;5414;59.782;16.378;2023-04-09T13:53:55;1.37;;;0.83;;
10725;SDS011;5414;59.782;16.378;2023-04-09T13:56:23;1.13;;;0.80;;
10725;SDS011;5414;59.782;16.378;2023-04-09T13:58:51;1.17;;;0.90;;
10725;SDS011;5414;59.782;16.378;2023-04-09T14:01:17;1.53;;;0.83;;
10725;SDS011;5414;59.782;16.378;2023-04-09T14:03:43;2.77;;;1.00;;
10725;SDS011;5414;59.782;16.378;2023-04-09T14:06:09;1.30;;;0.83;;
10725;SDS011;5414;59.782;16.378;2023-04-09T14:08:37;1.43;;;0.90;;
10725;SDS011;5414;59.782;16.378;2023-04-09T14:11:03;1.87;;;1.00;;
10725;SDS011;5414;59.782;16.378;2023-04-09T14:13:29;1.00;;;0.90;;
10725;SDS011;5414;59.782;16.378;2023-04-09T14:15:55;1.43;;;0.90;;
10725;SDS011;5414;59.782;16.378;2023-04-09T14:18:21;0.93;;;0.80;;
10725;SDS011;5414;59.782;16.378;2023-04-09T14:20:47;1.67;;;0.90;;
10725;SDS011;5414;59.782;16.378;2023-04-09T14:23:13;1.43;;;0.80;;
10725;SDS011;5414;59.782;16.378;2023-04-09T14:25:39;1.83;;;1.10;;
10725;SDS011;5414;59.782;16.378;2023-04-09T14:28:05;1.57;;;0.80;;
10725;SDS011;5414;59.782;16.378;2023-04-09T14:30:31;1.53;;;0.70;;
10725;SDS011;5414;59.782;16.378;2023-04-09T14:32:58;1.50;;;0.93;;
10725;SDS011;5414;59.782;16.378;2023-04-09T14:35:24;1.10;;;1.00;;
10725;SDS011;5414;59.782;16.378;2023-04-09T14:37:50;1.33;;;0.80;;
10725;SDS011;5414;59.782;16.378;2023-04-09T14:40:16;0.80;;;0.70;;
10725;SDS011;5414;59.782;16.378;2023-04-09T14:42:42;1.00;;;0.83;;
10725;SDS011;5414;59.782;16.378;2023-04-09T14:45:08;0.83;;;0.80;;
10725;SDS011;5414;59.782;16.378;2023-04-09T14:47:34;1.30;;;0.90;;
10725;SDS011;5414;59.782;16.378;2023-04-09T14:50:00;1.67;;;0.93;;
10725;SDS011;5414;59.782;16.378;2023-04-09T14:52:26;2.90;;;0.90;;
10725;SDS011;5414;59.782;16.378;2023-04-09T14:54:54;1.23;;;0.83;;
10725;SDS011;5414;59.782;16.378;2023-04-09T14:57:21;1.80;;;0.80;;
10725;SDS011;5414;59.782;16.378;2023-04-09T14:59:47;1.77;;;0.83;;
10725;SDS011;5414;59.782;16.378;2023-04-09T15:02:13;2.47;;;0.93;;
10725;SDS011;5414;59.782;16.378;2023-04-09T15:04:40;1.23;;;0.80;;
10725;SDS011;5414;59.782;16.378;2023-04-09T15:07:06;0.80;;;0.80;;
10725;SDS011;5414;59.782;16.378;2023-04-09T15:09:32;1.10;;;0.73;;
10725;SDS011;5414;59.782;16.378;2023-04-09T15:11:58;2.60;;;0.93;;
10725;SDS011;5414;59.782;16.378;2023-04-09T15:14:27;1.40;;;0.80;;